sensor_id;sensor_type;location;lat;lon;timestamp;temperature;humidity
9305;DHT22;4690;52.422;13.486;2022-07-17T00:03:50;15.20;99.90
9305;DHT22;4690;52.422;13.486;2022-07-17T00:06:16;15.10;99.90
9305;DHT22;4690;52.422;13.486;2022-07-17T00:08:42;15.10;99.90
9305;DHT22;4690;52.422;13.486;2022-07-17T00:11:07;15.10;99.90
9305;DHT22;4690;52.422;13.486;2022-07-17T00:13:33;15.00;99.90
9305;DHT22;4690;52.422;13.486;2022-07-17T00:15:59;15.00;99.90
9305;DHT22;4690;52.422;13.486;2022-07-17T00:18:24;14.90;99.90
9305;DHT22;4690;52.422;13.486;2022-07-17T00:20:50;14.90;99.90
9305;DHT22;4690;52.422;13.486;2022-07-17T00:23:16;14.80;99.90
9305;DHT22;4690;52.422;13.486;2022-07-17T00:25:42;14.80;99.90
9305;DHT22;4690;52.422;13.486;2022-07-17T00:28:08;14.80;99.90
9305;DHT22;4690;52.422;13.486;2022-07-17T00:30:34;14.80;99.90
9305;DHT22;4690;52.422;13.486;2022-07-17T00:33:00;14.70;99.90
9305;DHT22;4690;52.422;13.486;2022-07-17T00:35:25;14.70;99.90
9305;DHT22;4690;52.422;13.486;2022-07-17T00:37:51;14.70;99.90
9305;DHT22;4690;52.422;13.486;2022-07-17T00:40:20;14.60;99.90
9305;DHT22;4690;52.422;13.486;2022-07-17T00:42:47;14.50;99.90
9305;DHT22;4690;52.422;13.486;2022-07-17T00:45:14;14.50;99.90
9305;DHT22;4690;52.422;13.486;2022-07-17T00:48:00;14.50;99.90
9305;DHT22;4690;52.422;13.486;2022-07-17T00:50:42;14.40;99.90
9305;DHT22;4690;52.422;13.486;2022-07-17T00:53:08;14.30;99.90
9305;DHT22;4690;52.422;13.486;2022-07-17T00:55:36;14.30;99.90
9305;DHT22;4690;52.422;13.486;2022-07-17T00:58:04;14.30;99.90
9305;DHT22;4690;52.422;13.486;2022-07-17T01:00:31;14.30;99.90
9305;DHT22;4690;52.422;13.486;2022-07-17T01:02:57;14.20;99.90
9305;DHT22;4690;52.422;13.486;2022-07-17T01:05:23;14.20;99.90
9305;DHT22;4690;52.422;13.486;2022-07-17T01:07:49;14.10;99.90
9305;DHT22;4690;52.422;13.486;2022-07-17T01:10:17;14.10;99.90
9305;DHT22;4690;52.422;13.486;2022-07-17T01:12:47;14.10;99.90
9305;DHT22;4690;52.422;13.486;2022-07-17T01:15:14;14.00;99.90
9305;DHT22;4690;52.422;13.486;2022-07-17T01:17:40;14.00;99.90
9305;DHT22;4690;52.422;13.486;2022-07-17T01:20:08;13.90;99.90
9305;DHT22;4690;52.422;13.486;2022-07-17T01:22:45;13.80;99.90
9305;DHT22;4690;52.422;13.486;2022-07-17T01:25:15;13.80;99.90
9305;DHT22;4690;52.422;13.486;2022-07-17T01:27:41;13.70;99.90
9305;DHT22;4690;52.422;13.486;2022-07-17T01:30:08;13.70;99.90
9305;DHT22;4690;52.422;13.486;2022-07-17T01:32:37;13.60;99.90
9305;DHT22;4690;52.422;13.486;2022-07-17T01:35:06;13.60;99.90
9305;DHT22;4690;52.422;13.486;2022-07-17T01:37:33;13.50;99.90
9305;DHT22;4690;52.422;13.486;2022-07-17T01:39:59;13.50;99.90
9305;DHT22;4690;52.422;13.486;2022-07-17T01:42:26;13.50;99.90
9305;DHT22;4690;52.422;13.486;2022-07-17T01:44:54;13.50;99.90
9305;DHT22;4690;52.422;13.486;2022-07-17T01:47:21;13.50;99.90
9305;DHT22;4690;52.422;13.486;2022-07-17T01:49:52;13.40;99.90
9305;DHT22;4690;52.422;13.486;2022-07-17T01:52:19;13.40;99.90
9305;DHT22;4690;52.422;13.486;2022-07-17T01:54:45;13.40;99.90
9305;DHT22;4690;52.422;13.486;2022-07-17T01:57:12;13.40;99.90
9305;DHT22;4690;52.422;13.486;2022-07-17T01:59:39;13.40;99.90
9305;DHT22;4690;52.422;13.486;2022-07-17T02:02:05;13.40;99.90
9305;DHT22;4690;52.422;13.486;2022-07-17T02:04:33;13.30;99.90
9305;DHT22;4690;52.422;13.486;2022-07-17T02:06:59;13.30;99.90
9305;DHT22;4690;52.422;13.486;2022-07-17T02:09:25;13.30;99.90
9305;DHT22;4690;52.422;13.486;2022-07-17T02:11:52;13.30;99.90
9305;DHT22;4690;52.422;13.486;2022-07-17T02:14:18;13.30;99.90
9305;DHT22;4690;52.422;13.486;2022-07-17T02:16:44;13.20;99.90
9305;DHT22;4690;52.422;13.486;2022-07-17T02:19:10;13.20;99.90
9305;DHT22;4690;52.422;13.486;2022-07-17T02:21:36;13.20;99.90
9305;DHT22;4690;52.422;13.486;2022-07-17T02:24:02;13.20;99.90
9305;DHT22;4690;52.422;13.486;2022-07-17T02:26:27;13.10;99.90
9305;DHT22;4690;52.422;13.486;2022-07-17T02:28:53;13.10;99.90
9305;DHT22;4690;52.422;13.486;2022-07-17T02:31:20;13.00;99.90
9305;DHT22;4690;52.422;13.486;2022-07-17T02:33:45;12.80;99.90
9305;DHT22;4690;52.422;13.486;2022-07-17T02:36:11;12.80;99.90
9305;DHT22;4690;52.422;13.486;2022-07-17T02:38:37;12.70;99.90
9305;DHT22;4690;52.422;13.486;2022-07-17T02:41:03;12.70;99.90
9305;DHT22;4690;52.422;13.486;2022-07-17T02:43:28;12.50;99.90
9305;DHT22;4690;52.422;13.486;2022-07-17T02:45:54;12.50;99.90
9305;DHT22;4690;52.422;13.486;2022-07-17T02:48:20;12.40;99.90
9305;DHT22;4690;52.422;13.486;2022-07-17T02:50:46;12.30;99.90
9305;DHT22;4690;52.422;13.486;2022-07-17T02:53:11;12.30;99.90
9305;DHT22;4690;52.422;13.486;2022-07-17T02:55:37;12.10;99.90
9305;DHT22;4690;52.422;13.486;2022-07-17T02:58:03;12.00;99.90
9305;DHT22;4690;52.422;13.486;2022-07-17T03:00:29;11.90;99.90
9305;DHT22;4690;52.422;13.486;2022-07-17T03:02:56;11.90;99.90
9305;DHT22;4690;52.422;13.486;2022-07-17T03:05:22;11.80;99.90
9305;DHT22;4690;52.422;13.486;2022-07-17T03:07:48;11.80;99.90
9305;DHT22;4690;52.422;13.486;2022-07-17T03:10:14;11.80;99.90
9305;DHT22;4690;52.422;13.486;2022-07-17T03:12:40;11.80;99.90
9305;DHT22;4690;52.422;13.486;2022-07-17T03:15:07;11.70;99.90
9305;DHT22;4690;52.422;13.486;2022-07-17T03:17:34;11.70;99.90
9305;DHT22;4690;52.422;13.486;2022-07-17T03:20:00;11.60;99.90
9305;DHT22;4690;52.422;13.486;2022-07-17T03:22:26;11.50;99.90
9305;DHT22;4690;52.422;13.486;2022-07-17T03:24:52;11.50;99.90
9305;DHT22;4690;52.422;13.486;2022-07-17T03:27:18;11.50;99.90
9305;DHT22;4690;52.422;13.486;2022-07-17T03:29:44;11.40;99.90
9305;DHT22;4690;52.422;13.486;2022-07-17T03:32:10;11.40;99.90
9305;DHT22;4690;52.422;13.486;2022-07-17T03:34:37;11.40;99.90
9305;DHT22;4690;52.422;13.486;2022-07-17T03:37:03;11.40;99.90
9305;DHT22;4690;52.422;13.486;2022-07-17T03:39:30;11.40;99.90
9305;DHT22;4690;52.422;13.486;2022-07-17T03:41:56;11.50;99.90
9305;DHT22;4690;52.422;13.486;2022-07-17T03:44:22;11.50;99.90
9305;DHT22;4690;52.422;13.486;2022-07-17T03:46:48;11.40;99.90
9305;DHT22;4690;52.422;13.486;2022-07-17T03:49:14;11.40;99.90
9305;DHT22;4690;52.422;13.486;2022-07-17T03:51:40;11.40;99.90
9305;DHT22;4690;52.422;13.486;2022-07-17T03:54:05;11.40;99.90
9305;DHT22;4690;52.422;13.486;2022-07-17T03:56:31;11.40;99.90
9305;DHT22;4690;52.422;13.486;2022-07-17T03:58:57;11.40;99.90
9305;DHT22;4690;52.422;13.486;2022-07-17T04:01:23;11.30;99.90
9305;DHT22;4690;52.422;13.486;2022-07-17T04:03:48;11.20;99.90
9305;DHT22;4690;52.422;13.486;2022-07-17T04:06:14;11.30;99.90
9305;DHT22;4690;52.422;13.486;2022-07-17T04:08:40;11.30;99.90
9305;DHT22;4690;52.422;13.486;2022-07-17T04:11:05;11.30;99.90
9305;DHT22;4690;52.422;13.486;2022-07-17T04:13:31;11.40;99.90
9305;DHT22;4690;52.422;13.486;2022-07-17T04:15:57;11.50;99.90
9305;DHT22;4690;52.422;13.486;2022-07-17T04:18:27;11.60;99.90
9305;DHT22;4690;52.422;13.486;2022-07-17T04:20:56;11.60;99.90
9305;DHT22;4690;52.422;13.486;2022-07-17T04:23:27;11.60;99.90
9305;DHT22;4690;52.422;13.486;2022-07-17T04:25:53;11.70;99.90
9305;DHT22;4690;52.422;13.486;2022-07-17T04:28:19;11.70;99.90
9305;DHT22;4690;52.422;13.486;2022-07-17T04:30:45;11.70;99.90
9305;DHT22;4690;52.422;13.486;2022-07-17T04:33:12;11.80;99.90
9305;DHT22;4690;52.422;13.486;2022-07-17T04:35:38;11.80;99.90
9305;DHT22;4690;52.422;13.486;2022-07-17T04:38:06;11.90;99.90
9305;DHT22;4690;52.422;13.486;2022-07-17T04:40:34;12.00;99.90
9305;DHT22;4690;52.422;13.486;2022-07-17T04:43:01;12.10;99.90
9305;DHT22;4690;52.422;13.486;2022-07-17T04:45:27;12.10;99.90
9305;DHT22;4690;52.422;13.486;2022-07-17T04:47:53;12.30;99.90
9305;DHT22;4690;52.422;13.486;2022-07-17T04:50:19;12.40;99.90
9305;DHT22;4690;52.422;13.486;2022-07-17T04:52:46;12.50;99.90
9305;DHT22;4690;52.422;13.486;2022-07-17T04:55:11;12.60;99.90
9305;DHT22;4690;52.422;13.486;2022-07-17T04:57:38;12.80;99.90
9305;DHT22;4690;52.422;13.486;2022-07-17T05:00:05;12.90;99.90
9305;DHT22;4690;52.422;13.486;2022-07-17T05:02:33;13.00;99.90
9305;DHT22;4690;52.422;13.486;2022-07-17T05:04:59;13.20;99.90
9305;DHT22;4690;52.422;13.486;2022-07-17T05:07:26;13.30;99.90
9305;DHT22;4690;52.422;13.486;2022-07-17T05:09:52;13.40;99.90
9305;DHT22;4690;52.422;13.486;2022-07-17T05:12:18;13.60;99.90
9305;DHT22;4690;52.422;13.486;2022-07-17T05:14:44;13.60;99.90
9305;DHT22;4690;52.422;13.486;2022-07-17T05:17:10;13.70;99.90
9305;DHT22;4690;52.422;13.486;2022-07-17T05:19:36;13.70;99.90
9305;DHT22;4690;52.422;13.486;2022-07-17T05:22:03;13.80;99.90
9305;DHT22;4690;52.422;13.486;2022-07-17T05:24:29;13.90;99.90
9305;DHT22;4690;52.422;13.486;2022-07-17T05:26:55;13.90;99.90
9305;DHT22;4690;52.422;13.486;2022-07-17T05:29:22;14.00;99.90
9305;DHT22;4690;52.422;13.486;2022-07-17T05:31:48;14.10;99.90
9305;DHT22;4690;52.422;13.486;2022-07-17T05:34:14;14.20;99.90
9305;DHT22;4690;52.422;13.486;2022-07-17T05:36:39;14.30;99.90
9305;DHT22;4690;52.422;13.486;2022-07-17T05:39:05;14.40;99.90
9305;DHT22;4690;52.422;13.486;2022-07-17T05:41:31;14.50;99.90
9305;DHT22;4690;52.422;13.486;2022-07-17T05:43:56;14.60;99.90
9305;DHT22;4690;52.422;13.486;2022-07-17T05:46:22;14.60;99.90
9305;DHT22;4690;52.422;13.486;2022-07-17T05:48:48;14.70;99.90
9305;DHT22;4690;52.422;13.486;2022-07-17T05:51:13;14.80;99.90
9305;DHT22;4690;52.422;13.486;2022-07-17T05:53:39;14.90;99.90
9305;DHT22;4690;52.422;13.486;2022-07-17T05:56:05;15.00;99.90
9305;DHT22;4690;52.422;13.486;2022-07-17T05:58:31;15.20;99.90
9305;DHT22;4690;52.422;13.486;2022-07-17T06:00:57;15.30;99.90
9305;DHT22;4690;52.422;13.486;2022-07-17T06:03:23;15.40;99.90
9305;DHT22;4690;52.422;13.486;2022-07-17T06:05:48;15.40;99.90
9305;DHT22;4690;52.422;13.486;2022-07-17T06:08:14;15.50;99.90
9305;DHT22;4690;52.422;13.486;2022-07-17T06:10:40;15.60;99.90
9305;DHT22;4690;52.422;13.486;2022-07-17T06:13:05;15.70;99.90
9305;DHT22;4690;52.422;13.486;2022-07-17T06:15:31;15.60;99.90
9305;DHT22;4690;52.422;13.486;2022-07-17T06:18:04;15.60;99.90
9305;DHT22;4690;52.422;13.486;2022-07-17T06:20:30;15.70;99.90
9305;DHT22;4690;52.422;13.486;2022-07-17T06:22:56;15.80;99.90
9305;DHT22;4690;52.422;13.486;2022-07-17T06:25:22;15.90;99.90
9305;DHT22;4690;52.422;13.486;2022-07-17T06:27:49;16.10;99.90
9305;DHT22;4690;52.422;13.486;2022-07-17T06:30:15;16.10;99.90
9305;DHT22;4690;52.422;13.486;2022-07-17T06:32:42;16.00;99.90
9305;DHT22;4690;52.422;13.486;2022-07-17T06:35:08;16.20;99.90
9305;DHT22;4690;52.422;13.486;2022-07-17T06:37:35;16.30;99.90
9305;DHT22;4690;52.422;13.486;2022-07-17T06:40:03;16.30;99.90
9305;DHT22;4690;52.422;13.486;2022-07-17T06:42:30;16.30;99.90
9305;DHT22;4690;52.422;13.486;2022-07-17T06:44:56;16.30;99.90
9305;DHT22;4690;52.422;13.486;2022-07-17T06:47:21;16.20;99.90
9305;DHT22;4690;52.422;13.486;2022-07-17T06:49:47;16.10;99.90
9305;DHT22;4690;52.422;13.486;2022-07-17T06:52:13;16.20;99.90
9305;DHT22;4690;52.422;13.486;2022-07-17T06:54:38;16.40;99.90
9305;DHT22;4690;52.422;13.486;2022-07-17T06:57:04;16.40;99.90
9305;DHT22;4690;52.422;13.486;2022-07-17T06:59:30;16.30;99.90
9305;DHT22;4690;52.422;13.486;2022-07-17T07:01:56;16.20;99.90
9305;DHT22;4690;52.422;13.486;2022-07-17T07:04:21;16.20;99.90
9305;DHT22;4690;52.422;13.486;2022-07-17T07:06:47;16.10;99.90
9305;DHT22;4690;52.422;13.486;2022-07-17T07:09:13;16.10;99.90
9305;DHT22;4690;52.422;13.486;2022-07-17T07:11:39;16.10;99.90
9305;DHT22;4690;52.422;13.486;2022-07-17T07:14:06;16.10;99.90
9305;DHT22;4690;52.422;13.486;2022-07-17T07:16:33;15.90;99.90
9305;DHT22;4690;52.422;13.486;2022-07-17T07:18:59;16.00;99.90
9305;DHT22;4690;52.422;13.486;2022-07-17T07:21:26;16.00;99.90
9305;DHT22;4690;52.422;13.486;2022-07-17T07:23:53;16.00;99.90
9305;DHT22;4690;52.422;13.486;2022-07-17T07:26:19;16.20;99.90
9305;DHT22;4690;52.422;13.486;2022-07-17T07:28:45;16.30;99.90
9305;DHT22;4690;52.422;13.486;2022-07-17T07:31:11;16.20;99.90
9305;DHT22;4690;52.422;13.486;2022-07-17T07:33:37;16.20;99.90
9305;DHT22;4690;52.422;13.486;2022-07-17T07:36:04;16.30;99.90
9305;DHT22;4690;52.422;13.486;2022-07-17T07:38:30;16.30;99.90
9305;DHT22;4690;52.422;13.486;2022-07-17T07:40:56;16.40;99.90
9305;DHT22;4690;52.422;13.486;2022-07-17T07:43:21;16.50;99.90
9305;DHT22;4690;52.422;13.486;2022-07-17T07:45:47;16.60;99.90
9305;DHT22;4690;52.422;13.486;2022-07-17T07:48:13;16.70;99.90
9305;DHT22;4690;52.422;13.486;2022-07-17T07:50:39;16.80;99.90
9305;DHT22;4690;52.422;13.486;2022-07-17T07:53:05;16.80;99.90
9305;DHT22;4690;52.422;13.486;2022-07-17T07:55:31;16.70;99.90
9305;DHT22;4690;52.422;13.486;2022-07-17T07:58:08;16.70;99.90
9305;DHT22;4690;52.422;13.486;2022-07-17T08:00:36;16.70;99.90
9305;DHT22;4690;52.422;13.486;2022-07-17T08:03:03;16.40;99.90
9305;DHT22;4690;52.422;13.486;2022-07-17T08:05:29;16.30;99.90
9305;DHT22;4690;52.422;13.486;2022-07-17T08:07:55;16.40;99.90
9305;DHT22;4690;52.422;13.486;2022-07-17T08:10:21;16.40;99.90
9305;DHT22;4690;52.422;13.486;2022-07-17T08:12:47;16.50;99.90
9305;DHT22;4690;52.422;13.486;2022-07-17T08:15:17;16.40;99.90
9305;DHT22;4690;52.422;13.486;2022-07-17T08:17:45;16.60;99.90
9305;DHT22;4690;52.422;13.486;2022-07-17T08:20:14;16.90;99.90
9305;DHT22;4690;52.422;13.486;2022-07-17T08:22:45;17.00;99.90
9305;DHT22;4690;52.422;13.486;2022-07-17T08:25:12;17.00;99.90
9305;DHT22;4690;52.422;13.486;2022-07-17T08:27:39;17.10;99.90
9305;DHT22;4690;52.422;13.486;2022-07-17T08:30:08;17.40;99.90
9305;DHT22;4690;52.422;13.486;2022-07-17T08:32:36;17.30;99.90
9305;DHT22;4690;52.422;13.486;2022-07-17T08:35:03;17.50;99.90
9305;DHT22;4690;52.422;13.486;2022-07-17T08:37:29;17.60;99.90
9305;DHT22;4690;52.422;13.486;2022-07-17T08:39:56;17.70;99.90
9305;DHT22;4690;52.422;13.486;2022-07-17T08:42:22;17.90;99.90
9305;DHT22;4690;52.422;13.486;2022-07-17T08:44:48;18.00;99.90
9305;DHT22;4690;52.422;13.486;2022-07-17T08:47:15;18.10;99.90
9305;DHT22;4690;52.422;13.486;2022-07-17T08:49:46;18.00;99.90
9305;DHT22;4690;52.422;13.486;2022-07-17T08:52:14;18.30;99.90
9305;DHT22;4690;52.422;13.486;2022-07-17T08:54:41;18.70;99.90
9305;DHT22;4690;52.422;13.486;2022-07-17T08:57:07;18.90;99.90
9305;DHT22;4690;52.422;13.486;2022-07-17T08:59:34;19.10;99.90
9305;DHT22;4690;52.422;13.486;2022-07-17T09:02:00;19.10;99.90
9305;DHT22;4690;52.422;13.486;2022-07-17T09:04:28;18.80;99.90
9305;DHT22;4690;52.422;13.486;2022-07-17T09:06:59;18.40;99.90
9305;DHT22;4690;52.422;13.486;2022-07-17T09:09:29;18.40;99.90
9305;DHT22;4690;52.422;13.486;2022-07-17T09:11:58;18.60;99.90
9305;DHT22;4690;52.422;13.486;2022-07-17T09:14:37;18.80;99.90
9305;DHT22;4690;52.422;13.486;2022-07-17T09:17:06;18.80;99.90
9305;DHT22;4690;52.422;13.486;2022-07-17T09:19:42;18.80;99.90
9305;DHT22;4690;52.422;13.486;2022-07-17T09:22:23;18.80;99.90
9305;DHT22;4690;52.422;13.486;2022-07-17T09:24:53;19.10;99.90
9305;DHT22;4690;52.422;13.486;2022-07-17T09:32:20;18.70;99.90
9305;DHT22;4690;52.422;13.486;2022-07-17T09:34:48;18.80;99.90
9305;DHT22;4690;52.422;13.486;2022-07-17T09:37:16;18.60;99.90
9305;DHT22;4690;52.422;13.486;2022-07-17T09:39:42;18.50;99.90
9305;DHT22;4690;52.422;13.486;2022-07-17T09:42:09;18.40;99.90
9305;DHT22;4690;52.422;13.486;2022-07-17T09:44:56;18.40;99.90
9305;DHT22;4690;52.422;13.486;2022-07-17T09:47:29;18.40;99.90
9305;DHT22;4690;52.422;13.486;2022-07-17T09:49:58;18.40;99.90
9305;DHT22;4690;52.422;13.486;2022-07-17T09:52:32;18.10;99.90
9305;DHT22;4690;52.422;13.486;2022-07-17T09:54:59;18.20;99.90
9305;DHT22;4690;52.422;13.486;2022-07-17T09:57:32;17.90;99.90
9305;DHT22;4690;52.422;13.486;2022-07-17T10:00:02;17.90;99.90
9305;DHT22;4690;52.422;13.486;2022-07-17T10:02:31;18.10;99.90
9305;DHT22;4690;52.422;13.486;2022-07-17T10:04:57;18.20;99.90
9305;DHT22;4690;52.422;13.486;2022-07-17T10:07:23;18.10;99.90
9305;DHT22;4690;52.422;13.486;2022-07-17T10:09:49;18.30;99.90
9305;DHT22;4690;52.422;13.486;2022-07-17T10:12:15;18.50;99.90
9305;DHT22;4690;52.422;13.486;2022-07-17T10:14:47;18.90;99.90
9305;DHT22;4690;52.422;13.486;2022-07-17T10:17:18;19.30;99.90
9305;DHT22;4690;52.422;13.486;2022-07-17T10:19:53;19.70;99.90
9305;DHT22;4690;52.422;13.486;2022-07-17T10:22:21;19.70;99.90
9305;DHT22;4690;52.422;13.486;2022-07-17T10:24:51;19.50;99.90
9305;DHT22;4690;52.422;13.486;2022-07-17T10:27:20;19.70;99.90
9305;DHT22;4690;52.422;13.486;2022-07-17T10:30:10;19.60;99.90
9305;DHT22;4690;52.422;13.486;2022-07-17T10:32:37;19.70;99.90
9305;DHT22;4690;52.422;13.486;2022-07-17T10:35:09;20.20;99.90
9305;DHT22;4690;52.422;13.486;2022-07-17T10:40:05;20.30;99.90
9305;DHT22;4690;52.422;13.486;2022-07-17T10:48:00;19.40;99.90
9305;DHT22;4690;52.422;13.486;2022-07-17T10:50:42;19.80;99.90
9305;DHT22;4690;52.422;13.486;2022-07-17T10:55:44;20.20;99.90
9305;DHT22;4690;52.422;13.486;2022-07-17T11:01:06;20.50;99.90
9305;DHT22;4690;52.422;13.486;2022-07-17T11:03:56;20.70;99.90
9305;DHT22;4690;52.422;13.486;2022-07-17T11:06:27;21.20;99.90
9305;DHT22;4690;52.422;13.486;2022-07-17T11:09:05;21.00;99.90
9305;DHT22;4690;52.422;13.486;2022-07-17T11:11:46;21.20;99.90
9305;DHT22;4690;52.422;13.486;2022-07-17T11:14:22;21.20;99.90
9305;DHT22;4690;52.422;13.486;2022-07-17T11:16:58;21.60;99.90
9305;DHT22;4690;52.422;13.486;2022-07-17T11:19:33;21.60;99.90
9305;DHT22;4690;52.422;13.486;2022-07-17T11:22:05;21.00;99.90
9305;DHT22;4690;52.422;13.486;2022-07-17T11:27:03;20.70;99.90
9305;DHT22;4690;52.422;13.486;2022-07-17T11:29:29;20.80;99.90
9305;DHT22;4690;52.422;13.486;2022-07-17T11:31:56;20.90;99.90
9305;DHT22;4690;52.422;13.486;2022-07-17T11:34:25;20.80;99.90
9305;DHT22;4690;52.422;13.486;2022-07-17T11:36:59;20.90;99.90
9305;DHT22;4690;52.422;13.486;2022-07-17T11:39:46;21.10;99.90
9305;DHT22;4690;52.422;13.486;2022-07-17T11:42:25;21.10;99.90
9305;DHT22;4690;52.422;13.486;2022-07-17T11:44:53;21.50;99.90
9305;DHT22;4690;52.422;13.486;2022-07-17T11:47:22;21.80;99.90
9305;DHT22;4690;52.422;13.486;2022-07-17T11:49:50;21.50;99.90
9305;DHT22;4690;52.422;13.486;2022-07-17T11:52:18;21.60;99.90
9305;DHT22;4690;52.422;13.486;2022-07-17T11:54:56;21.70;99.90
9305;DHT22;4690;52.422;13.486;2022-07-17T11:57:23;21.80;99.90
9305;DHT22;4690;52.422;13.486;2022-07-17T11:59:52;21.70;99.90
9305;DHT22;4690;52.422;13.486;2022-07-17T12:02:21;21.40;99.90
9305;DHT22;4690;52.422;13.486;2022-07-17T12:04:56;21.60;99.90
9305;DHT22;4690;52.422;13.486;2022-07-17T12:07:43;21.80;99.90
9305;DHT22;4690;52.422;13.486;2022-07-17T12:10:16;22.00;99.90
9305;DHT22;4690;52.422;13.486;2022-07-17T12:13:00;22.10;99.90
9305;DHT22;4690;52.422;13.486;2022-07-17T12:15:44;22.40;99.90
9305;DHT22;4690;52.422;13.486;2022-07-17T12:18:25;22.50;99.90
9305;DHT22;4690;52.422;13.486;2022-07-17T12:20:56;22.40;99.90
9305;DHT22;4690;52.422;13.486;2022-07-17T12:23:36;22.70;99.90
9305;DHT22;4690;52.422;13.486;2022-07-17T12:26:14;22.50;99.90
9305;DHT22;4690;52.422;13.486;2022-07-17T12:28:43;22.20;99.90
9305;DHT22;4690;52.422;13.486;2022-07-17T12:31:09;22.60;99.90
9305;DHT22;4690;52.422;13.486;2022-07-17T12:33:37;22.70;99.90
9305;DHT22;4690;52.422;13.486;2022-07-17T12:36:03;22.50;99.90
9305;DHT22;4690;52.422;13.486;2022-07-17T12:38:29;22.80;99.90
9305;DHT22;4690;52.422;13.486;2022-07-17T12:40:55;22.90;99.90
9305;DHT22;4690;52.422;13.486;2022-07-17T12:43:21;23.00;99.90
9305;DHT22;4690;52.422;13.486;2022-07-17T12:45:48;22.70;99.90
9305;DHT22;4690;52.422;13.486;2022-07-17T12:48:13;22.90;99.90
9305;DHT22;4690;52.422;13.486;2022-07-17T12:50:39;22.80;99.90
9305;DHT22;4690;52.422;13.486;2022-07-17T12:53:06;22.90;99.90
9305;DHT22;4690;52.422;13.486;2022-07-17T12:55:32;23.20;99.90
9305;DHT22;4690;52.422;13.486;2022-07-17T12:57:58;23.50;99.90
9305;DHT22;4690;52.422;13.486;2022-07-17T13:00:24;23.50;99.90
9305;DHT22;4690;52.422;13.486;2022-07-17T13:02:50;23.50;99.90
9305;DHT22;4690;52.422;13.486;2022-07-17T13:05:16;23.70;99.90
9305;DHT22;4690;52.422;13.486;2022-07-17T13:07:42;23.50;99.90
9305;DHT22;4690;52.422;13.486;2022-07-17T13:10:08;23.60;99.90
9305;DHT22;4690;52.422;13.486;2022-07-17T13:12:35;23.80;99.90
9305;DHT22;4690;52.422;13.486;2022-07-17T13:15:02;24.10;99.90
9305;DHT22;4690;52.422;13.486;2022-07-17T13:17:29;24.10;99.90
9305;DHT22;4690;52.422;13.486;2022-07-17T13:19:54;23.90;99.90
9305;DHT22;4690;52.422;13.486;2022-07-17T13:22:20;23.80;99.90
9305;DHT22;4690;52.422;13.486;2022-07-17T13:24:46;23.60;99.90
9305;DHT22;4690;52.422;13.486;2022-07-17T13:27:12;23.70;99.90
9305;DHT22;4690;52.422;13.486;2022-07-17T13:29:37;23.90;99.90
9305;DHT22;4690;52.422;13.486;2022-07-17T13:32:04;23.60;99.90
9305;DHT22;4690;52.422;13.486;2022-07-17T13:34:30;23.50;99.90
9305;DHT22;4690;52.422;13.486;2022-07-17T13:36:56;23.50;99.90
9305;DHT22;4690;52.422;13.486;2022-07-17T13:39:23;23.80;99.90
9305;DHT22;4690;52.422;13.486;2022-07-17T13:41:49;23.40;99.90
9305;DHT22;4690;52.422;13.486;2022-07-17T13:44:15;23.70;99.90
9305;DHT22;4690;52.422;13.486;2022-07-17T13:46:41;23.80;99.90
9305;DHT22;4690;52.422;13.486;2022-07-17T13:49:07;23.90;99.90
9305;DHT22;4690;52.422;13.486;2022-07-17T13:51:34;23.80;99.90
9305;DHT22;4690;52.422;13.486;2022-07-17T13:54:01;23.80;99.90
9305;DHT22;4690;52.422;13.486;2022-07-17T13:56:27;23.80;99.90
9305;DHT22;4690;52.422;13.486;2022-07-17T13:58:53;23.80;99.90
9305;DHT22;4690;52.422;13.486;2022-07-17T14:01:19;23.70;99.90
9305;DHT22;4690;52.422;13.486;2022-07-17T14:03:45;23.80;99.90
9305;DHT22;4690;52.422;13.486;2022-07-17T14:06:10;23.90;99.90
9305;DHT22;4690;52.422;13.486;2022-07-17T14:08:36;24.20;99.90
9305;DHT22;4690;52.422;13.486;2022-07-17T14:11:03;24.50;99.90
9305;DHT22;4690;52.422;13.486;2022-07-17T14:13:29;24.40;99.90
9305;DHT22;4690;52.422;13.486;2022-07-17T14:15:55;24.50;99.90
9305;DHT22;4690;52.422;13.486;2022-07-17T14:18:21;24.40;99.90
9305;DHT22;4690;52.422;13.486;2022-07-17T14:20:47;24.60;99.90
9305;DHT22;4690;52.422;13.486;2022-07-17T14:23:13;24.70;99.90
9305;DHT22;4690;52.422;13.486;2022-07-17T14:25:39;24.60;99.90
9305;DHT22;4690;52.422;13.486;2022-07-17T14:28:04;24.70;99.90
9305;DHT22;4690;52.422;13.486;2022-07-17T14:30:30;24.60;99.90
9305;DHT22;4690;52.422;13.486;2022-07-17T14:32:57;24.70;99.90
9305;DHT22;4690;52.422;13.486;2022-07-17T14:35:23;24.90;99.90
9305;DHT22;4690;52.422;13.486;2022-07-17T14:37:49;24.90;99.90
9305;DHT22;4690;52.422;13.486;2022-07-17T14:40:15;24.80;99.90
9305;DHT22;4690;52.422;13.486;2022-07-17T14:42:41;24.90;99.90
9305;DHT22;4690;52.422;13.486;2022-07-17T14:45:08;25.20;99.90
9305;DHT22;4690;52.422;13.486;2022-07-17T14:47:34;24.80;99.90
9305;DHT22;4690;52.422;13.486;2022-07-17T14:50:00;25.00;99.90
9305;DHT22;4690;52.422;13.486;2022-07-17T14:52:26;25.00;99.90
9305;DHT22;4690;52.422;13.486;2022-07-17T14:54:52;24.90;99.90
9305;DHT22;4690;52.422;13.486;2022-07-17T14:57:18;25.00;99.90
9305;DHT22;4690;52.422;13.486;2022-07-17T14:59:43;24.70;99.90
9305;DHT22;4690;52.422;13.486;2022-07-17T15:02:09;24.60;99.90
9305;DHT22;4690;52.422;13.486;2022-07-17T15:04:35;24.80;99.90
9305;DHT22;4690;52.422;13.486;2022-07-17T15:07:04;24.80;99.90
9305;DHT22;4690;52.422;13.486;2022-07-17T15:09:30;24.80;99.90
9305;DHT22;4690;52.422;13.486;2022-07-17T15:11:56;24.70;99.90
9305;DHT22;4690;52.422;13.486;2022-07-17T15:14:22;24.70;99.90
9305;DHT22;4690;52.422;13.486;2022-07-17T15:16:48;24.80;99.90
9305;DHT22;4690;52.422;13.486;2022-07-17T15:19:14;24.80;99.90
9305;DHT22;4690;52.422;13.486;2022-07-17T15:21:40;24.70;99.90
9305;DHT22;4690;52.422;13.486;2022-07-17T15:24:06;24.60;99.90
9305;DHT22;4690;52.422;13.486;2022-07-17T15:26:32;24.50;99.90
9305;DHT22;4690;52.422;13.486;2022-07-17T15:28:59;24.40;99.90
9305;DHT22;4690;52.422;13.486;2022-07-17T15:31:25;24.30;99.90
9305;DHT22;4690;52.422;13.486;2022-07-17T15:33:51;24.10;99.90
9305;DHT22;4690;52.422;13.486;2022-07-17T15:36:17;24.00;99.90
9305;DHT22;4690;52.422;13.486;2022-07-17T15:38:54;24.10;99.90
9305;DHT22;4690;52.422;13.486;2022-07-17T15:41:22;24.20;99.90
9305;DHT22;4690;52.422;13.486;2022-07-17T15:43:49;24.10;99.90
9305;DHT22;4690;52.422;13.486;2022-07-17T15:46:15;24.20;99.90
9305;DHT22;4690;52.422;13.486;2022-07-17T15:48:41;24.10;99.90
9305;DHT22;4690;52.422;13.486;2022-07-17T15:51:07;24.10;99.90
9305;DHT22;4690;52.422;13.486;2022-07-17T15:53:32;24.20;99.90
9305;DHT22;4690;52.422;13.486;2022-07-17T15:55:58;24.10;99.90
9305;DHT22;4690;52.422;13.486;2022-07-17T15:58:24;24.10;99.90
9305;DHT22;4690;52.422;13.486;2022-07-17T16:00:49;24.00;99.90
9305;DHT22;4690;52.422;13.486;2022-07-17T16:03:16;23.90;99.90
9305;DHT22;4690;52.422;13.486;2022-07-17T16:05:42;24.00;99.90
9305;DHT22;4690;52.422;13.486;2022-07-17T16:08:07;24.00;99.90
9305;DHT22;4690;52.422;13.486;2022-07-17T16:10:33;24.00;99.90